Time;durP1;ratioP1;P1;durP2;ratioP2;P2;SDS_P1;SDS_P2;PMS_P1;PMS_P2;Temp;Humidity;BMP_temperature;BMP_pressure;BME280_temperature;BME280_humidity;BME280_pressure;Samples;Min_cycle;Max_cycle;Signal;HPM_P1;HPM_P2
2023/07/09 00:00:24;;;;;;;9.48;5.70;;;26.30;78.80;;;;;;5029775;28;20021;-74
2023/07/09 00:02:50;;;;;;;9.93;6.15;;;26.20;78.70;;;;;;5030253;28;20079;-75
2023/07/09 00:05:17;;;;;;;10.30;5.70;;;26.20;78.70;;;;;;5029957;28;20037;-74
2023/07/09 00:07:44;;;;;;;8.73;5.05;;;26.20;78.70;;;;;;5030106;28;20075;-74
2023/07/09 00:10:19;;;;;;;9.38;5.85;;;26.20;78.60;;;;;;5029694;28;20017;-74
2023/07/09 00:12:46;;;;;;;10.63;6.00;;;26.10;78.80;;;;;;5028631;28;20021;-74
2023/07/09 00:15:16;;;;;;;8.57;5.15;;;26.10;78.60;;;;;;5029651;28;20051;-74
2023/07/09 00:17:42;;;;;;;10.93;6.18;;;26.10;78.60;;;;;;5029775;28;20021;-74
2023/07/09 00:20:13;;;;;;;10.77;6.45;;;26.10;78.80;;;;;;5029810;28;20033;-75
2023/07/09 00:22:51;;;;;;;9.55;5.65;;;26.10;79.10;;;;;;5029078;28;20029;-75
2023/07/09 00:25:19;;;;;;;9.77;5.40;;;26.10;79.20;;;;;;5028575;28;20530;-74
2023/07/09 00:27:48;;;;;;;9.80;5.65;;;26.00;78.90;;;;;;5029378;28;20025;-74
2023/07/09 00:30:19;;;;;;;7.75;5.15;;;26.10;78.90;;;;;;5029566;28;20021;-74
2023/07/09 00:32:44;;;;;;;8.50;5.40;;;26.00;78.70;;;;;;5029660;28;20040;-74
2023/07/09 00:35:15;;;;;;;7.25;5.28;;;26.00;78.60;;;;;;5029720;28;20132;-75
2023/07/09 00:37:41;;;;;;;10.07;5.38;;;26.00;78.50;;;;;;5029691;28;20445;-75
2023/07/09 00:40:18;;;;;;;10.48;5.70;;;26.00;78.90;;;;;;5029893;28;20494;-74
2023/07/09 00:42:53;;;;;;;9.93;5.70;;;26.00;79.20;;;;;;5028732;28;20505;-74
2023/07/09 00:45:22;;;;;;;11.05;5.63;;;26.00;79.10;;;;;;5029028;28;20045;-73
2023/07/09 00:48:13;;;;;;;10.90;5.63;;;26.00;79.10;;;;;;5029249;28;20116;-73
2023/07/09 00:50:50;;;;;;;8.82;5.32;;;25.90;79.60;;;;;;5029239;28;20070;-74
2023/07/09 00:53:22;;;;;;;8.45;5.65;;;25.90;78.80;;;;;;5030053;28;20101;-75
2023/07/09 00:56:08;;;;;;;9.23;5.75;;;25.90;78.90;;;;;;5029254;28;20029;-74
2023/07/09 00:58:35;;;;;;;10.30;5.72;;;25.90;79.10;;;;;;5029904;28;20053;-74
2023/07/09 01:01:05;;;;;;;11.50;6.10;;;25.90;79.40;;;;;;5029026;28;20379;-74
2023/07/09 01:03:36;;;;;;;;;;;25.90;79.30;;;;;;5030167;28;20033;-74
2023/07/09 01:06:03;;;;;;;10.05;6.03;;;25.90;79.30;;;;;;5029460;28;20386;-74
2023/07/09 01:08:34;;;;;;;10.93;5.82;;;25.90;79.30;;;;;;5033225;28;20029;-75
2023/07/09 01:10:59;;;;;;;8.75;5.85;;;25.90;79.20;;;;;;5033063;28;20022;-75
2023/07/09 01:13:27;;;;;;;8.88;5.53;;;25.90;79.50;;;;;;5032611;28;20029;-74
2023/07/09 01:15:54;;;;;;;10.20;5.78;;;25.90;79.50;;;;;;5032850;28;20025;-74
2023/07/09 01:18:21;;;;;;;8.27;5.53;;;25.80;79.50;;;;;;5031951;28;20022;-74
2023/07/09 01:20:46;;;;;;;8.68;5.13;;;25.80;79.50;;;;;;5032791;28;20026;-74
2023/07/09 01:23:12;;;;;;;8.50;5.35;;;25.80;79.10;;;;;;5032487;28;20124;-74
2023/07/09 01:25:43;;;;;;;8.95;5.40;;;25.80;79.20;;;;;;5032124;28;20050;-73
2023/07/09 01:28:10;;;;;;;10.18;6.10;;;25.80;79.30;;;;;;5032289;28;20083;-74
2023/07/09 01:30:38;;;;;;;10.05;6.10;;;25.80;79.30;;;;;;5031896;28;20484;-74
2023/07/09 01:33:06;;;;;;;10.35;5.45;;;25.70;78.70;;;;;;5032340;28;20029;-74
2023/07/09 01:35:34;;;;;;;7.85;4.85;;;25.70;78.40;;;;;;5032049;28;20494;-74
2023/07/09 01:38:00;;;;;;;8.85;5.90;;;25.70;78.40;;;;;;5031902;28;20033;-75
2023/07/09 01:40:27;;;;;;;8.82;5.40;;;25.70;78.20;;;;;;5031278;28;20034;-73
2023/07/09 01:42:55;;;;;;;10.80;5.53;;;25.70;77.90;;;;;;5032423;28;20064;-74
2023/07/09 01:45:21;;;;;;;8.18;5.15;;;25.70;78.10;;;;;;5031868;28;20103;-73
2023/07/09 01:47:47;;;;;;;9.00;5.38;;;25.70;77.70;;;;;;5032338;28;20027;-75
2023/07/09 01:50:15;;;;;;;11.43;6.25;;;25.60;77.70;;;;;;5032170;28;20483;-74
2023/07/09 01:52:43;;;;;;;10.82;5.53;;;25.60;77.60;;;;;;5031956;28;20033;-74
2023/07/09 01:55:11;;;;;;;8.52;4.82;;;25.60;77.60;;;;;;5031856;28;20052;-74
2023/07/09 01:57:37;;;;;;;11.50;5.47;;;25.50;77.30;;;;;;5031742;28;20025;-74
2023/07/09 02:00:08;;;;;;;9.23;4.93;;;25.50;77.30;;;;;;5032106;28;20374;-74
2023/07/09 02:02:35;;;;;;;8.93;5.53;;;25.50;77.00;;;;;;5032034;28;20057;-74
2023/07/09 02:05:01;;;;;;;9.07;5.32;;;25.50;76.80;;;;;;5032029;28;20030;-75
2023/07/09 02:07:27;;;;;;;10.68;5.40;;;25.50;77.10;;;;;;5031286;28;20377;-74
2023/07/09 02:09:53;;;;;;;9.30;5.47;;;25.40;77.10;;;;;;5031714;28;20061;-73
2023/07/09 02:12:18;;;;;;;9.30;4.72;;;25.40;77.20;;;;;;5031223;28;20034;-73
2023/07/09 02:14:45;;;;;;;8.25;5.50;;;25.40;77.40;;;;;;5031751;28;20447;-74
2023/07/09 02:17:14;;;;;;;6.72;4.30;;;25.40;77.70;;;;;;5031333;28;20049;-75
2023/07/09 02:19:40;;;;;;;8.63;5.72;;;25.30;77.70;;;;;;5031943;28;20025;-74
2023/07/09 02:22:07;;;;;;;9.25;5.35;;;25.30;78.20;;;;;;5031731;28;20107;-74
2023/07/09 02:24:33;;;;;;;8.45;5.20;;;25.20;78.60;;;;;;5033040;28;20406;-73
2023/07/09 02:27:00;;;;;;;10.18;5.53;;;25.20;79.00;;;;;;5033694;28;20116;-75
2023/07/09 02:29:27;;;;;;;8.50;5.72;;;25.20;79.30;;;;;;5032154;28;20053;-73
2023/07/09 02:31:55;;;;;;;8.80;5.32;;;25.10;79.40;;;;;;5031768;28;20422;-74
2023/07/09 02:34:25;;;;;;;11.15;6.00;;;25.10;79.50;;;;;;5031350;28;20036;-73
2023/07/09 02:36:54;;;;;;;12.30;5.57;;;25.10;79.70;;;;;;5031336;28;20471;-74
2023/07/09 02:39:21;;;;;;;7.63;4.90;;;25.00;79.80;;;;;;5030805;28;20458;-75
2023/07/09 02:41:50;;;;;;;6.65;4.30;;;25.00;79.80;;;;;;5031219;28;20140;-74
2023/07/09 02:44:16;;;;;;;9.52;5.75;;;25.00;79.80;;;;;;5030753;28;20037;-75
2023/07/09 02:46:42;;;;;;;7.55;4.82;;;24.90;79.40;;;;;;5031348;28;20026;-75
2023/07/09 02:49:10;;;;;;;10.10;5.45;;;24.90;79.50;;;;;;5031014;28;20056;-74
2023/07/09 02:51:35;;;;;;;10.45;6.07;;;24.90;79.30;;;;;;5030835;28;20029;-74
2023/07/09 02:54:03;;;;;;;9.80;6.07;;;24.90;79.30;;;;;;5030695;28;20055;-74
2023/07/09 02:56:28;;;;;;;8.50;5.80;;;24.90;79.60;;;;;;5030581;28;20040;-74
2023/07/09 02:58:54;;;;;;;9.93;5.95;;;24.90;79.90;;;;;;5030623;28;20017;-74
2023/07/09 03:01:24;;;;;;;10.63;5.95;;;24.90;80.10;;;;;;5028864;28;20395;-74
2023/07/09 03:03:57;;;;;;;;;;;24.90;80.20;;;;;;5030421;28;20391;-75
2023/07/09 03:06:24;;;;;;;10.43;6.90;;;24.90;80.10;;;;;;5029799;28;19950;-75
2023/07/09 03:08:51;;;;;;;11.15;6.30;;;24.90;80.60;;;;;;5029114;28;20503;-75
2023/07/09 03:11:17;;;;;;;13.48;7.38;;;24.90;81.30;;;;;;5030198;28;20029;-75
2023/07/09 03:13:43;;;;;;;11.23;6.97;;;24.90;81.20;;;;;;5029986;28;20115;-75
2023/07/09 03:16:09;;;;;;;9.82;7.20;;;24.80;81.40;;;;;;5029514;28;20124;-75
2023/07/09 03:18:35;;;;;;;12.07;7.35;;;24.90;81.80;;;;;;5030092;28;20094;-75
2023/07/09 03:21:00;;;;;;;11.63;7.65;;;24.80;81.90;;;;;;5030446;28;20056;-73
2023/07/09 03:23:26;;;;;;;14.52;7.88;;;24.80;82.40;;;;;;5029812;28;20024;-74
2023/07/09 03:25:52;;;;;;;11.52;7.47;;;24.80;82.70;;;;;;5029560;28;20081;-73
2023/07/09 03:28:18;;;;;;;11.77;7.70;;;24.80;82.80;;;;;;5029523;28;20026;-73
2023/07/09 03:30:45;;;;;;;11.65;7.60;;;24.70;83.20;;;;;;5029251;28;20029;-74
2023/07/09 03:33:11;;;;;;;11.38;7.78;;;24.70;83.50;;;;;;5029866;28;20399;-75
2023/07/09 03:35:38;;;;;;;11.90;7.47;;;24.70;83.70;;;;;;5029699;28;20483;-76
2023/07/09 03:38:05;;;;;;;12.73;8.43;;;24.70;83.90;;;;;;5030063;28;20519;-75
2023/07/09 03:40:30;;;;;;;12.65;8.13;;;24.70;84.00;;;;;;5028542;28;20037;-75
2023/07/09 03:42:56;;;;;;;11.20;7.68;;;24.60;84.10;;;;;;5029912;28;20391;-74
2023/07/09 03:45:22;;;;;;;11.13;7.22;;;24.70;84.30;;;;;;5029600;28;20076;-75
2023/07/09 03:47:48;;;;;;;12.07;7.60;;;24.60;84.40;;;;;;5029486;28;20029;-75
2023/07/09 03:50:13;;;;;;;12.73;8.25;;;24.60;84.80;;;;;;5029669;28;20392;-74
2023/07/09 03:52:39;;;;;;;11.57;8.27;;;24.60;84.90;;;;;;5029681;28;20044;-75
2023/07/09 03:55:05;;;;;;;12.43;7.90;;;24.60;85.20;;;;;;5029516;28;20387;-75
2023/07/09 03:57:31;;;;;;;13.35;8.65;;;24.60;85.30;;;;;;5029264;28;20021;-74
2023/07/09 03:59:56;;;;;;;13.15;9.05;;;24.60;85.60;;;;;;5029241;28;20231;-75
2023/07/09 04:02:22;;;;;;;14.23;8.88;;;24.60;85.60;;;;;;5028166;28;20022;-74
2023/07/09 04:04:48;;;;;;;12.25;8.63;;;24.60;85.80;;;;;;5029408;28;20040;-75
2023/07/09 04:07:15;;;;;;;12.70;7.60;;;24.60;85.90;;;;;;5029252;28;20040;-74
2023/07/09 04:09:41;;;;;;;13.55;8.45;;;24.60;86.30;;;;;;5029756;28;20488;-75
2023/07/09 04:12:07;;;;;;;14.40;9.55;;;24.60;87.30;;;;;;5029467;28;20541;-74
2023/07/09 04:14:32;;;;;;;13.15;8.75;;;24.60;86.90;;;;;;5028638;28;20056;-75
2023/07/09 04:16:58;;;;;;;12.25;8.80;;;24.60;87.20;;;;;;5029562;28;20022;-75
2023/07/09 04:19:24;;;;;;;12.23;8.10;;;24.60;87.10;;;;;;5029184;28;20052;-75
2023/07/09 04:21:49;;;;;;;11.57;8.02;;;24.60;87.00;;;;;;5029273;28;20471;-74
2023/07/09 04:24:18;;;;;;;11.55;9.10;;;24.60;87.10;;;;;;5028754;28;20060;-74
2023/07/09 04:26:44;;;;;;;13.65;8.35;;;24.70;87.20;;;;;;5028685;28;20104;-74
2023/07/09 04:29:10;;;;;;;11.90;8.77;;;24.70;87.50;;;;;;5029388;28;20111;-73
2023/07/09 04:31:36;;;;;;;13.50;8.35;;;24.70;87.60;;;;;;5029298;28;20052;-74
2023/07/09 04:34:01;;;;;;;11.27;8.27;;;24.70;87.70;;;;;;5029502;28;20471;-75
2023/07/09 04:36:27;;;;;;;13.02;7.78;;;24.70;87.70;;;;;;5027624;28;20037;-74
2023/07/09 04:38:53;;;;;;;11.45;7.70;;;24.70;87.60;;;;;;5029021;28;20034;-75
2023/07/09 04:41:19;;;;;;;14.13;9.65;;;24.70;87.70;;;;;;5031223;28;20513;-75
2023/07/09 04:43:44;;;;;;;14.40;9.38;;;24.70;87.80;;;;;;5033125;28;20056;-75
2023/07/09 04:46:10;;;;;;;15.02;9.10;;;24.70;88.10;;;;;;5033026;28;20040;-74
2023/07/09 04:48:35;;;;;;;14.50;9.75;;;24.70;88.10;;;;;;5032656;28;20052;-74
2023/07/09 04:51:01;;;;;;;15.10;9.05;;;24.80;88.50;;;;;;5032854;28;20030;-75
2023/07/09 04:53:27;;;;;;;11.57;7.93;;;24.80;88.50;;;;;;5032882;28;20029;-74
2023/07/09 04:55:52;;;;;;;12.70;8.35;;;24.80;88.60;;;;;;5032950;28;20100;-75
2023/07/09 04:58:18;;;;;;;16.38;9.80;;;24.80;88.60;;;;;;5032874;28;20021;-75
2023/07/09 05:00:45;;;;;;;13.48;8.30;;;24.80;89.00;;;;;;5032528;28;20021;-75
2023/07/09 05:03:11;;;;;;;11.68;8.32;;;24.90;89.40;;;;;;5032847;28;20021;-74
2023/07/09 05:05:46;;;;;;;12.52;7.53;;;24.90;89.60;;;;;;5032440;28;20550;-76
2023/07/09 05:08:12;;;;;;;14.73;8.20;;;24.90;89.90;;;;;;5032884;28;20399;-76
2023/07/09 05:10:46;;;;;;;11.98;8.25;;;25.00;90.00;;;;;;5032442;28;20025;-75
2023/07/09 05:13:12;;;;;;;10.35;8.25;;;25.00;90.00;;;;;;5032607;28;20053;-74
2023/07/09 05:15:41;;;;;;;11.70;7.93;;;25.10;89.80;;;;;;5031212;28;20060;-74
2023/07/09 05:18:07;;;;;;;10.90;8.03;;;25.10;89.90;;;;;;5032590;28;20049;-75
2023/07/09 05:20:33;;;;;;;12.32;9.35;;;25.10;89.70;;;;;;5032405;28;20032;-75
2023/07/09 05:22:59;;;;;;;11.52;8.50;;;25.10;89.90;;;;;;5032184;28;20022;-75
2023/07/09 05:25:25;;;;;;;14.10;9.45;;;25.20;89.80;;;;;;5031733;28;20128;-74
2023/07/09 05:27:51;;;;;;;14.20;10.00;;;25.30;89.70;;;;;;5032000;28;20025;-75
2023/07/09 05:30:17;;;;;;;13.20;9.70;;;25.40;89.60;;;;;;5032133;28;20029;-76
2023/07/09 05:32:43;;;;;;;14.75;10.23;;;25.40;89.30;;;;;;5032050;28;20029;-74
2023/07/09 05:35:09;;;;;;;13.30;10.00;;;25.40;89.10;;;;;;5032331;28;20029;-75
2023/07/09 05:37:36;;;;;;;12.80;9.15;;;25.40;88.70;;;;;;5030815;28;20037;-75
2023/07/09 05:40:04;;;;;;;15.23;11.52;;;25.40;88.40;;;;;;5031604;28;20068;-74
2023/07/09 05:42:30;;;;;;;16.63;10.70;;;25.40;88.20;;;;;;5032577;28;20049;-74
2023/07/09 05:44:55;;;;;;;15.00;10.50;;;25.50;88.60;;;;;;5032083;28;20072;-75
2023/07/09 05:47:21;;;;;;;15.75;10.52;;;25.60;88.40;;;;;;5032276;28;20021;-75
2023/07/09 05:49:49;;;;;;;12.75;8.45;;;25.70;88.40;;;;;;5032219;28;20025;-74
2023/07/09 05:52:15;;;;;;;14.90;10.38;;;25.70;88.30;;;;;;5030948;28;20502;-75
2023/07/09 05:54:41;;;;;;;17.95;12.27;;;25.70;88.30;;;;;;5031813;28;20017;-75
2023/07/09 05:57:07;;;;;;;13.85;9.38;;;25.80;88.10;;;;;;5031766;28;20103;-75
2023/07/09 05:59:32;;;;;;;15.07;9.50;;;25.90;87.70;;;;;;5032028;28;20037;-74
2023/07/09 06:02:00;;;;;;;15.23;11.57;;;26.00;87.10;;;;;;5031644;28;20479;-75
2023/07/09 06:04:26;;;;;;;16.60;12.55;;;26.00;86.80;;;;;;5031660;28;20510;-75
2023/07/09 06:06:52;;;;;;;13.35;10.05;;;26.10;86.50;;;;;;5031559;28;20472;-74
2023/07/09 06:09:17;;;;;;;15.77;7.25;;;26.20;86.20;;;;;;5031115;28;20044;-75
2023/07/09 06:11:43;;;;;;;14.93;10.02;;;26.30;85.70;;;;;;5031747;28;20080;-75
2023/07/09 06:14:09;;;;;;;15.80;11.73;;;26.40;85.30;;;;;;5031466;28;20566;-75
2023/07/09 06:16:35;;;;;;;17.83;12.38;;;26.40;85.40;;;;;;5031583;28;20124;-75
2023/07/09 06:19:00;;;;;;;13.18;9.73;;;26.50;85.10;;;;;;5031283;28;20057;-75
2023/07/09 06:21:26;;;;;;;12.55;9.25;;;26.50;84.80;;;;;;5031330;28;20068;-74
2023/07/09 06:23:54;;;;;;;17.92;11.88;;;26.60;84.70;;;;;;5031472;28;20026;-75
2023/07/09 06:26:20;;;;;;;15.88;10.63;;;26.70;84.50;;;;;;5031802;28;20103;-74
2023/07/09 06:28:46;;;;;;;14.90;10.35;;;26.90;84.50;;;;;;5031929;28;20049;-75
2023/07/09 06:31:11;;;;;;;12.65;8.57;;;27.00;84.20;;;;;;5031372;28;20796;-75
2023/07/09 06:33:37;;;;;;;18.02;11.88;;;27.00;83.60;;;;;;5029600;28;20882;-74
2023/07/09 06:36:04;;;;;;;18.85;11.10;;;27.20;83.30;;;;;;5031847;28;20037;-75
2023/07/09 06:38:30;;;;;;;16.17;9.55;;;27.20;83.00;;;;;;5031888;28;20096;-75
2023/07/09 06:40:57;;;;;;;17.00;11.25;;;27.20;82.30;;;;;;5030618;28;20468;-75
2023/07/09 06:43:22;;;;;;;22.00;11.52;;;27.20;82.80;;;;;;5029999;28;20071;-75
2023/07/09 06:45:53;;;;;;;14.18;9.95;;;27.30;83.50;;;;;;5030940;28;20038;-76
2023/07/09 06:48:20;;;;;;;15.13;9.52;;;27.40;83.80;;;;;;5030728;28;20044;-75
2023/07/09 06:50:45;;;;;;;11.93;8.70;;;27.40;83.50;;;;;;5030953;28;20072;-75
2023/07/09 06:53:11;;;;;;;15.18;10.07;;;27.60;83.10;;;;;;5031100;28;20432;-74
2023/07/09 06:55:37;;;;;;;17.75;10.82;;;27.70;83.00;;;;;;5029541;28;20034;-75
2023/07/09 06:58:02;;;;;;;14.82;11.15;;;27.90;82.40;;;;;;5030588;28;20053;-75
2023/07/09 07:00:28;;;;;;;16.52;10.55;;;28.00;82.80;;;;;;5030294;28;20464;-73
2023/07/09 07:02:54;;;;;;;15.85;10.68;;;28.10;82.30;;;;;;5030883;28;20061;-74
2023/07/09 07:05:19;;;;;;;14.50;8.57;;;28.20;81.90;;;;;;5029731;28;20503;-75
2023/07/09 07:07:45;;;;;;;11.57;7.45;;;28.20;81.00;;;;;;5030641;28;20084;-75
2023/07/09 07:10:11;;;;;;;10.00;5.90;;;28.30;81.30;;;;;;5030243;28;20049;-75
2023/07/09 07:12:45;;;;;;;9.75;6.57;;;28.40;80.80;;;;;;5029968;28;20026;-76
2023/07/09 07:15:13;;;;;;;11.88;7.57;;;28.50;80.00;;;;;;5030450;28;20545;-74
2023/07/09 07:17:39;;;;;;;14.15;9.77;;;28.60;79.90;;;;;;5030304;28;20022;-76
2023/07/09 07:20:06;;;;;;;14.70;9.05;;;28.70;79.40;;;;;;5030485;28;20022;-76
2023/07/09 07:22:31;;;;;;;14.32;9.43;;;28.80;79.40;;;;;;5029837;28;20030;-76
2023/07/09 07:24:57;;;;;;;12.85;8.00;;;28.80;79.50;;;;;;5028342;28;20046;-76
2023/07/09 07:27:22;;;;;;;12.35;6.93;;;28.90;79.50;;;;;;5030044;28;20097;-75
2023/07/09 07:29:48;;;;;;;12.82;7.78;;;29.00;78.80;;;;;;5029956;28;20427;-75
2023/07/09 07:32:14;;;;;;;14.95;7.70;;;29.10;77.90;;;;;;5028313;28;20025;-77
2023/07/09 07:34:39;;;;;;;9.23;6.03;;;29.10;77.20;;;;;;5028810;28;20032;-77
2023/07/09 07:37:05;;;;;;;15.75;9.27;;;29.10;77.40;;;;;;5030110;28;20434;-76
2023/07/09 07:39:31;;;;;;;11.30;7.38;;;29.10;77.10;;;;;;5029533;28;20773;-75
2023/07/09 07:41:57;;;;;;;13.07;8.57;;;29.10;76.70;;;;;;5029832;28;20059;-75
2023/07/09 07:44:22;;;;;;;12.95;8.93;;;29.30;76.50;;;;;;5029439;28;20114;-74
2023/07/09 07:46:48;;;;;;;10.40;7.88;;;29.40;75.40;;;;;;5029317;28;20057;-74
2023/07/09 07:49:14;;;;;;;11.27;8.20;;;29.60;74.90;;;;;;5029750;28;20029;-75
2023/07/09 07:51:40;;;;;;;12.90;7.45;;;29.80;74.20;;;;;;5029880;28;20028;-74
2023/07/09 07:54:08;;;;;;;14.18;8.80;;;29.90;74.00;;;;;;5029231;28;20025;-74
2023/07/09 07:56:34;;;;;;;11.23;7.82;;;30.10;74.60;;;;;;5029639;28;20026;-75
2023/07/09 07:58:59;;;;;;;13.45;7.70;;;30.30;73.70;;;;;;5029642;28;20021;-75
2023/07/09 08:01:26;;;;;;;14.60;8.73;;;30.40;73.60;;;;;;5029300;28;20101;-75
2023/07/09 08:03:51;;;;;;;15.27;8.77;;;30.60;73.30;;;;;;5029351;28;20390;-74
2023/07/09 08:06:17;;;;;;;12.95;7.43;;;30.70;73.40;;;;;;5029578;28;20033;-74
2023/07/09 08:08:42;;;;;;;13.50;8.73;;;30.80;73.00;;;;;;5028987;28;20033;-74
2023/07/09 08:11:09;;;;;;;14.60;7.32;;;30.90;72.50;;;;;;5029276;28;20032;-75
2023/07/09 08:13:36;;;;;;;12.18;8.98;;;30.90;72.00;;;;;;5029277;28;20027;-74
2023/07/09 08:16:03;;;;;;;11.38;8.23;;;31.00;72.00;;;;;;5029272;28;20029;-75
2023/07/09 08:18:28;;;;;;;15.70;9.48;;;31.00;71.40;;;;;;5029265;28;20475;-75
2023/07/09 08:20:54;;;;;;;13.25;9.27;;;31.10;72.10;;;;;;5029019;28;20021;-74
2023/07/09 08:23:20;;;;;;;12.23;7.95;;;31.20;71.70;;;;;;5029124;28;20068;-74
2023/07/09 08:26:05;;;;;;;13.52;8.55;;;31.20;71.10;;;;;;5028974;28;20156;-77
2023/07/09 08:28:31;;;;;;;11.95;8.02;;;31.20;71.00;;;;;;5029233;28;20029;-75
2023/07/09 08:30:57;;;;;;;17.40;8.07;;;31.30;71.20;;;;;;5029254;28;20025;-74
2023/07/09 08:33:24;;;;;;;12.52;8.75;;;31.50;71.00;;;;;;5028660;28;20076;-76
2023/07/09 08:35:51;;;;;;;9.73;6.47;;;31.60;70.10;;;;;;5028716;28;20521;-77
2023/07/09 08:38:18;;;;;;;13.18;7.88;;;31.70;70.50;;;;;;5029334;28;20044;-78
2023/07/09 08:41:04;;;;;;;11.52;7.85;;;31.70;68.90;;;;;;5029116;28;20446;-76
2023/07/09 08:44:04;;;;;;;9.73;6.93;;;31.80;69.40;;;;;;5024531;28;20037;-77
2023/07/09 08:46:53;;;;;;;15.20;7.88;;;32.00;69.50;;;;;;5020718;28;20402;-78
2023/07/09 08:49:23;;;;;;;10.70;7.18;;;32.10;68.70;;;;;;5029578;28;20036;-78
2023/07/09 08:51:49;;;;;;;9.65;6.20;;;32.20;68.50;;;;;;5029115;28;20091;-77
2023/07/09 08:54:27;;;;;;;11.95;6.25;;;32.30;68.10;;;;;;5028139;28;20029;-77
2023/07/09 08:56:54;;;;;;;10.98;7.03;;;32.40;67.50;;;;;;5029237;28;20021;-77
2023/07/09 08:59:21;;;;;;;10.57;7.70;;;32.40;66.70;;;;;;5028815;28;20018;-78
2023/07/09 09:01:55;;;;;;;10.27;6.72;;;32.60;66.20;;;;;;5028999;28;20033;-78
2023/07/09 09:04:33;;;;;;;11.48;7.65;;;32.60;66.30;;;;;;5029399;28;20029;-78
2023/07/09 09:07:44;;;;;;;10.40;6.80;;;32.60;64.30;;;;;;5030312;28;20049;-79
2023/07/09 09:10:26;;;;;;;10.90;6.53;;;32.60;64.10;;;;;;5007376;28;20029;-78
2023/07/09 09:13:26;;;;;;;9.85;5.95;;;32.60;64.80;;;;;;5006852;28;20080;-79
2023/07/09 09:15:53;;;;;;;9.35;5.82;;;32.70;64.40;;;;;;5024619;28;20047;-79
2023/07/09 09:18:28;;;;;;;10.13;7.03;;;32.90;66.80;;;;;;5028769;28;20021;-79
2023/07/09 09:21:07;;;;;;;9.32;6.95;;;32.90;63.90;;;;;;5029287;28;20025;-79
2023/07/09 09:23:54;;;;;;;9.35;7.32;;;32.90;64.90;;;;;;5028728;28;20108;-78
2023/07/09 09:26:28;;;;;;;9.52;6.68;;;33.10;63.80;;;;;;5028424;28;20076;-79
2023/07/09 09:28:54;;;;;;;7.85;5.18;;;33.20;64.00;;;;;;5031617;28;20430;-78
2023/07/09 09:31:19;;;;;;;9.98;6.75;;;33.20;64.90;;;;;;5032051;28;20026;-77
2023/07/09 09:33:47;;;;;;;10.32;6.15;;;33.30;65.40;;;;;;5032255;28;20028;-78
2023/07/09 09:36:22;;;;;;;13.13;7.70;;;33.40;65.30;;;;;;5032179;28;20134;-79
2023/07/09 09:38:50;;;;;;;11.48;7.65;;;33.50;65.00;;;;;;5031349;28;20383;-79
2023/07/09 09:41:21;;;;;;;9.82;6.32;;;33.70;63.10;;;;;;5032609;28;20022;-78
2023/07/09 09:43:51;;;;;;;10.45;6.85;;;33.70;62.80;;;;;;5030815;28;20020;-79
2023/07/09 09:46:18;;;;;;;;;;;33.70;64.40;;;;;;5032336;28;20045;-78
2023/07/09 09:48:46;;;;;;;8.52;6.40;;;33.80;62.40;;;;;;5032097;28;19924;-79
2023/07/09 09:51:13;;;;;;;15.27;7.72;;;34.00;61.80;;;;;;5032084;28;20057;-79
2023/07/09 09:53:44;;;;;;;12.43;6.38;;;34.10;60.40;;;;;;5031131;28;20478;-78
2023/07/09 09:56:20;;;;;;;9.60;5.25;;;34.10;61.30;;;;;;5031997;28;20376;-78
2023/07/09 09:58:45;;;;;;;9.60;6.40;;;34.20;62.00;;;;;;5031913;28;20017;-77
2023/07/09 10:01:15;;;;;;;8.52;6.22;;;34.30;63.90;;;;;;5030846;28;20029;-79
2023/07/09 10:03:41;;;;;;;8.30;5.75;;;34.50;63.20;;;;;;5032153;28;20112;-79
2023/07/09 10:06:15;;;;;;;7.55;5.30;;;34.50;61.70;;;;;;5030525;28;20832;-78
2023/07/09 10:08:45;;;;;;;11.80;6.28;;;34.60;63.00;;;;;;5032348;28;20025;-76
2023/07/09 10:11:48;;;;;;;9.00;5.95;;;34.80;62.00;;;;;;5030990;28;20035;-77
2023/07/09 10:14:25;;;;;;;9.30;6.55;;;34.90;63.30;;;;;;5031325;28;20112;-77
2023/07/09 10:16:58;;;;;;;11.25;6.80;;;35.00;60.40;;;;;;5031070;28;20029;-78
2023/07/09 10:19:48;;;;;;;11.77;6.57;;;35.10;60.10;;;;;;5029721;28;20026;-78
2023/07/09 10:22:23;;;;;;;8.20;4.75;;;35.20;61.60;;;;;;5030349;28;20035;-78
2023/07/09 10:24:58;;;;;;;9.18;5.32;;;35.30;60.30;;;;;;5029153;28;20549;-77
2023/07/09 10:27:59;;;;;;;8.57;4.90;;;35.30;59.80;;;;;;5029375;28;20026;-78
2023/07/09 10:30:25;;;;;;;8.18;4.80;;;35.50;63.70;;;;;;5030485;28;20060;-76
2023/07/09 10:33:05;;;;;;;9.88;5.30;;;35.60;61.40;;;;;;5031645;28;20447;-77
2023/07/09 10:36:09;;;;;;;7.45;4.57;;;35.70;60.70;;;;;;5032096;28;20029;-77
2023/07/09 10:38:41;;;;;;;8.77;5.18;;;35.90;62.40;;;;;;5010779;28;20041;-78
2023/07/09 10:41:11;;;;;;;9.88;5.38;;;35.90;57.70;;;;;;5010499;28;20030;-76
2023/07/09 10:43:44;;;;;;;10.90;6.57;;;36.00;57.90;;;;;;5022518;28;20033;-77
2023/07/09 10:46:19;;;;;;;8.35;4.95;;;36.00;57.50;;;;;;5031234;28;20437;-78
2023/07/09 10:48:51;;;;;;;10.45;4.38;;;36.10;60.60;;;;;;5029193;28;20116;-76
2023/07/09 10:51:20;;;;;;;8.00;5.65;;;36.20;61.20;;;;;;5030647;28;20029;-78
2023/07/09 10:54:01;;;;;;;8.18;5.63;;;36.40;58.60;;;;;;5030863;28;20025;-75
2023/07/09 10:56:31;;;;;;;6.95;4.30;;;36.40;56.60;;;;;;5030899;28;20021;-78
2023/07/09 10:59:15;;;;;;;10.55;4.95;;;36.50;59.50;;;;;;5031893;28;20365;-78
2023/07/09 11:01:49;;;;;;;9.13;4.72;;;36.60;62.40;;;;;;5030614;28;20088;-77
2023/07/09 11:04:17;;;;;;;8.02;5.30;;;36.60;62.50;;;;;;5032178;28;20033;-78
2023/07/09 11:06:48;;;;;;;7.93;4.93;;;36.60;56.20;;;;;;5031083;28;20033;-78
2023/07/09 11:09:35;;;;;;;10.52;5.03;;;36.40;55.20;;;;;;5030723;28;20032;-77
2023/07/09 11:12:13;;;;;;;8.63;4.95;;;36.30;53.60;;;;;;5029741;28;20021;-76
2023/07/09 11:15:01;;;;;;;10.30;6.13;;;36.40;54.10;;;;;;5031275;28;20025;-79
2023/07/09 11:17:28;;;;;;;7.88;4.35;;;36.40;52.30;;;;;;5029017;28;20026;-77
2023/07/09 11:19:58;;;;;;;7.70;4.95;;;36.50;57.60;;;;;;5031310;28;20029;-75
2023/07/09 11:22:35;;;;;;;9.20;5.10;;;36.60;55.50;;;;;;5030972;28;20026;-79
2023/07/09 11:25:28;;;;;;;8.10;4.78;;;36.60;54.10;;;;;;5030733;28;20086;-76
2023/07/09 11:28:04;;;;;;;13.88;5.05;;;36.80;54.70;;;;;;5021717;28;20037;-78
2023/07/09 11:30:30;;;;;;;12.73;5.93;;;36.80;59.00;;;;;;5030162;28;20022;-77
2023/07/09 11:32:59;;;;;;;8.73;4.85;;;36.90;54.50;;;;;;5030397;28;20055;-77
2023/07/09 11:36:05;;;;;;;7.57;4.70;;;36.90;54.90;;;;;;5030058;28;20029;-77
2023/07/09 11:38:44;;;;;;;10.05;5.80;;;36.80;58.30;;;;;;5028538;28;20068;-78
2023/07/09 11:41:33;;;;;;;7.93;4.40;;;36.70;54.10;;;;;;5030065;28;20025;-77
2023/07/09 11:44:25;;;;;;;7.72;4.90;;;36.80;56.90;;;;;;5026755;28;20463;-78
2023/07/09 11:46:53;;;;;;;8.43;5.55;;;37.00;56.80;;;;;;5028399;28;20040;-77
2023/07/09 11:49:24;;;;;;;7.97;4.30;;;37.10;56.90;;;;;;5030661;28;20032;-78
2023/07/09 11:51:54;;;;;;;6.55;4.22;;;36.90;54.00;;;;;;5029725;28;20025;-82
2023/07/09 11:54:20;;;;;;;11.57;5.25;;;36.90;56.70;;;;;;5028021;28;20056;-79
2023/07/09 11:57:03;;;;;;;9.60;4.55;;;36.80;53.50;;;;;;5028671;28;20029;-79
2023/07/09 11:59:29;;;;;;;11.20;4.60;;;36.80;53.30;;;;;;5028374;28;20037;-79
2023/07/09 12:02:00;;;;;;;7.75;4.30;;;36.90;53.30;;;;;;5029658;28;20099;-77
2023/07/09 12:04:34;;;;;;;7.05;4.20;;;36.90;54.10;;;;;;5028110;28;20495;-79
2023/07/09 12:07:01;;;;;;;8.98;4.90;;;36.90;59.70;;;;;;5029145;28;20025;-77
2023/07/09 12:09:32;;;;;;;7.70;4.72;;;36.80;58.00;;;;;;5029656;28;20029;-79
2023/07/09 12:11:58;;;;;;;8.27;5.10;;;36.70;58.60;;;;;;5030397;28;20163;-77
2023/07/09 12:14:24;;;;;;;7.25;5.07;;;36.60;55.30;;;;;;5029383;28;20045;-76
2023/07/09 12:16:51;;;;;;;7.95;5.30;;;36.60;54.50;;;;;;5029227;28;20033;-76
2023/07/09 12:19:20;;;;;;;6.90;4.88;;;36.60;55.70;;;;;;5027853;28;20384;-76
2023/07/09 12:21:53;;;;;;;8.25;5.03;;;36.60;57.00;;;;;;5029059;28;20026;-75
2023/07/09 12:24:26;;;;;;;6.97;3.38;;;36.60;55.10;;;;;;5027537;28;20053;-76
2023/07/09 12:27:03;;;;;;;7.30;4.57;;;36.50;57.00;;;;;;5027493;28;20065;-76
2023/07/09 12:29:34;;;;;;;8.00;3.92;;;36.40;57.40;;;;;;5027643;28;20036;-76
2023/07/09 12:32:03;;;;;;;8.65;4.97;;;36.30;60.10;;;;;;5027385;28;20049;-76
2023/07/09 12:34:31;;;;;;;7.57;5.03;;;36.20;59.70;;;;;;5026859;28;20022;-76
2023/07/09 12:36:58;;;;;;;6.30;3.60;;;36.20;58.10;;;;;;5027791;28;20025;-76
2023/07/09 12:39:29;;;;;;;6.50;4.18;;;36.10;60.40;;;;;;5028931;28;20048;-77
2023/07/09 12:42:01;;;;;;;5.90;3.92;;;35.90;62.10;;;;;;5029337;28;20064;-76
2023/07/09 12:44:31;;;;;;;9.05;4.07;;;35.90;61.20;;;;;;5028793;28;20026;-77
2023/07/09 12:46:57;;;;;;;5.55;3.60;;;35.80;62.10;;;;;;5028849;28;20095;-77
2023/07/09 12:49:23;;;;;;;6.40;4.10;;;35.70;64.20;;;;;;5027813;28;20036;-77
2023/07/09 12:51:49;;;;;;;7.13;3.80;;;35.50;65.10;;;;;;5029001;28;20029;-76